Time;durP1;ratioP1;P1;durP2;ratioP2;P2;SDS_P1;SDS_P2;PMS_P1;PMS_P2;Temp;Humidity;BMP_temperature;BMP_pressure;BME280_temperature;BME280_humidity;BME280_pressure;Samples;Min_cycle;Max_cycle;Signal;HPM_P1;HPM_P2
2023/06/29 00:02:25;;;;;;;17.45;5.85;;;19.80;99.90;;;;;;4997451;28;20050;-82
2023/06/29 00:04:53;;;;;;;16.30;6.33;;;19.70;99.90;;;;;;4997273;28;20058;-81
2023/06/29 00:07:20;;;;;;;18.15;6.05;;;19.70;99.90;;;;;;5013789;28;20302;-83
2023/06/29 00:09:47;;;;;;;17.25;6.05;;;19.70;99.90;;;;;;5014365;28;20145;-82
2023/06/29 00:12:14;;;;;;;18.70;6.25;;;19.70;99.90;;;;;;4998080;28;20096;-83
2023/06/29 00:14:41;;;;;;;13.10;5.45;;;19.70;99.90;;;;;;4998544;28;20054;-85
2023/06/29 00:17:08;;;;;;;14.77;5.90;;;19.70;99.90;;;;;;5014089;28;20049;-85
2023/06/29 00:19:35;;;;;;;16.33;5.93;;;19.70;99.90;;;;;;4996976;28;20046;-81
2023/06/29 00:22:02;;;;;;;13.98;5.22;;;19.70;99.90;;;;;;5014518;28;20126;-81
2023/06/29 00:27:20;;;;;;;16.20;5.50;;;19.70;99.90;;;;;;4997235;28;20124;-83
2023/06/29 00:29:47;;;;;;;16.58;6.22;;;19.70;99.90;;;;;;4997751;28;20042;-81
2023/06/29 00:32:13;;;;;;;14.10;6.05;;;19.80;99.90;;;;;;4997905;28;20050;-84
2023/06/29 00:34:41;;;;;;;16.42;6.65;;;19.80;99.90;;;;;;4997923;28;20046;-82
2023/06/29 00:37:08;;;;;;;14.57;5.88;;;19.80;99.90;;;;;;4998517;28;20042;-82
2023/06/29 00:39:35;;;;;;;15.68;5.93;;;19.80;99.90;;;;;;4997027;28;20062;-85
2023/06/29 00:42:02;;;;;;;18.20;5.63;;;19.70;99.90;;;;;;5013705;28;20122;-81
2023/06/29 00:44:28;;;;;;;15.80;5.68;;;19.70;99.90;;;;;;4996866;28;20093;-83
2023/06/29 00:46:55;;;;;;;15.27;6.28;;;19.80;99.90;;;;;;4997856;28;20508;-83
2023/06/29 00:49:23;;;;;;;14.90;5.53;;;19.80;99.90;;;;;;4997845;28;20052;-82
2023/06/29 00:51:49;;;;;;;17.45;6.18;;;19.80;99.90;;;;;;4995508;28;20373;-82
2023/06/29 00:54:16;;;;;;;14.68;5.90;;;19.80;99.90;;;;;;5013710;28;20081;-81
2023/06/29 00:56:45;;;;;;;13.50;5.93;;;19.80;99.90;;;;;;4997300;28;20042;-85
2023/06/29 00:59:13;;;;;;;16.35;5.60;;;19.70;99.90;;;;;;5012908;28;20465;-81
2023/06/29 01:01:41;;;;;;;13.05;5.45;;;19.70;99.90;;;;;;5013327;28;20050;-84
2023/06/29 01:04:08;;;;;;;13.50;5.22;;;19.70;99.90;;;;;;4997176;28;20428;-81
2023/06/29 01:09:22;;;;;;;13.80;5.50;;;19.60;99.90;;;;;;4996898;28;20065;-86
2023/06/29 01:11:49;;;;;;;16.20;6.18;;;19.60;99.90;;;;;;4996159;28;20038;-82
2023/06/29 01:14:16;;;;;;;15.65;6.20;;;19.60;99.90;;;;;;4996870;28;20050;-84
2023/06/29 01:16:44;;;;;;;14.13;6.47;;;19.60;99.90;;;;;;4997704;28;20414;-84
2023/06/29 01:19:11;;;;;;;16.13;6.32;;;19.60;99.90;;;;;;5012908;28;20046;-84
2023/06/29 01:21:38;;;;;;;16.77;6.75;;;19.50;99.90;;;;;;5012967;28;20042;-87
2023/06/29 01:24:05;;;;;;;19.15;6.60;;;19.40;99.90;;;;;;4997067;28;20054;-82
2023/06/29 01:29:24;;;;;;;18.77;7.13;;;19.20;99.90;;;;;;4997332;28;20358;-83
2023/06/29 01:31:53;;;;;;;19.50;6.80;;;19.10;99.90;;;;;;4996213;28;20058;-81
2023/06/29 01:34:21;;;;;;;16.17;6.45;;;19.00;99.90;;;;;;4998237;28;20061;-81
2023/06/29 01:36:49;;;;;;;16.80;6.45;;;19.10;99.90;;;;;;4997471;28;20042;-82
2023/06/29 01:39:16;;;;;;;19.20;6.50;;;19.10;99.90;;;;;;5012512;28;20038;-83
2023/06/29 01:41:42;;;;;;;17.40;7.25;;;19.20;99.90;;;;;;4997253;28;20050;-81
2023/06/29 01:44:10;;;;;;;20.20;7.30;;;19.20;99.90;;;;;;5012317;28;20455;-82
2023/06/29 01:46:40;;;;;;;19.27;6.90;;;19.30;99.90;;;;;;5012450;28;20385;-82
2023/06/29 01:49:07;;;;;;;15.55;7.10;;;19.20;99.90;;;;;;4997593;28;20066;-83
2023/06/29 01:51:34;;;;;;;19.20;6.80;;;19.30;99.90;;;;;;5011853;28;20101;-85
2023/06/29 01:54:00;;;;;;;15.60;6.78;;;19.20;99.90;;;;;;4997070;28;20038;-82
2023/06/29 01:56:27;;;;;;;16.80;6.57;;;19.30;99.90;;;;;;4996812;28;20073;-82
2023/06/29 01:58:54;;;;;;;19.42;8.05;;;19.20;99.90;;;;;;5011830;28;20405;-84
2023/06/29 02:01:21;;;;;;;16.85;7.03;;;19.30;99.90;;;;;;5012460;28;20068;-83
2023/06/29 02:03:47;;;;;;;20.70;6.97;;;19.30;99.90;;;;;;5012159;28;20362;-84
2023/06/29 02:06:15;;;;;;;18.67;7.38;;;19.30;99.90;;;;;;4996023;28;20050;-83
2023/06/29 02:08:42;;;;;;;22.20;8.02;;;19.20;99.90;;;;;;4995653;28;20065;-83
2023/06/29 02:11:09;;;;;;;19.45;8.02;;;19.30;99.90;;;;;;4996409;28;20034;-83
2023/06/29 02:13:35;;;;;;;22.67;8.95;;;19.20;99.90;;;;;;5012005;28;20046;-84
2023/06/29 02:18:48;;;;;;;21.60;9.05;;;19.10;99.90;;;;;;4996075;28;20129;-83
2023/06/29 02:21:14;;;;;;;26.98;10.52;;;19.00;99.90;;;;;;5012323;28;20121;-83
2023/06/29 02:23:41;;;;;;;27.92;10.30;;;19.00;99.90;;;;;;4996446;28;20060;-80
2023/06/29 02:26:08;;;;;;;24.25;10.05;;;18.90;99.90;;;;;;4978557;28;20137;-81
2023/06/29 02:28:35;;;;;;;25.55;11.55;;;18.90;99.90;;;;;;4996655;28;20037;-82
2023/06/29 02:31:02;;;;;;;25.80;10.32;;;18.80;99.90;;;;;;4995374;28;20096;-81
2023/06/29 02:33:29;;;;;;;25.15;10.20;;;18.80;99.90;;;;;;4979608;28;20060;-81
2023/06/29 02:35:56;;;;;;;30.15;9.95;;;18.80;99.90;;;;;;4996319;28;20144;-83
2023/06/29 02:38:22;;;;;;;24.85;10.45;;;18.80;99.90;;;;;;5010572;28;20042;-81
2023/06/29 02:40:49;;;;;;;26.33;10.82;;;18.80;99.90;;;;;;4979309;28;20476;-82
2023/06/29 02:43:16;;;;;;;23.83;9.63;;;18.80;99.90;;;;;;5011611;28;20108;-84
2023/06/29 02:45:44;;;;;;;30.40;11.07;;;18.80;99.90;;;;;;4995363;28;20066;-82
2023/06/29 02:48:12;;;;;;;27.55;10.93;;;18.70;99.90;;;;;;4979260;28;20051;-80
2023/06/29 02:50:38;;;;;;;28.58;12.52;;;18.70;99.90;;;;;;5011339;28;20042;-83
2023/06/29 02:53:05;;;;;;;30.23;11.45;;;18.60;99.90;;;;;;4979051;28;20046;-82
2023/06/29 02:55:34;;;;;;;27.70;12.30;;;18.60;99.90;;;;;;4996388;28;20078;-83
2023/06/29 02:58:01;;;;;;;32.28;11.20;;;18.60;99.90;;;;;;5010431;28;20057;-84
2023/06/29 03:00:28;;;;;;;30.80;11.20;;;18.60;99.90;;;;;;4979349;28;20042;-81
2023/06/29 03:02:54;;;;;;;29.67;10.35;;;18.60;99.90;;;;;;5011336;28;20374;-81
2023/06/29 03:05:21;;;;;;;30.08;11.63;;;18.60;99.90;;;;;;4995123;28;20061;-83
2023/06/29 03:07:48;;;;;;;28.50;11.05;;;18.60;99.90;;;;;;4995643;28;20039;-80
2023/06/29 03:10:15;;;;;;;31.48;10.85;;;18.60;99.90;;;;;;4995073;28;20050;-86
2023/06/29 03:12:42;;;;;;;30.00;11.40;;;18.60;99.90;;;;;;4994289;28;20053;-86
2023/06/29 03:15:08;;;;;;;26.92;11.43;;;18.60;99.90;;;;;;4994785;28;20038;-82
2023/06/29 03:17:35;;;;;;;28.00;11.40;;;18.50;99.90;;;;;;5010289;28;20042;-83
2023/06/29 03:20:02;;;;;;;29.52;11.05;;;18.50;99.90;;;;;;4995884;28;20053;-86
2023/06/29 03:22:29;;;;;;;29.40;10.57;;;18.50;99.90;;;;;;4995893;28;20401;-82
2023/06/29 03:24:55;;;;;;;25.90;10.35;;;18.50;99.90;;;;;;4994895;28;20053;-84
2023/06/29 03:27:22;;;;;;;23.25;9.68;;;18.50;99.90;;;;;;4995525;28;20049;-81
2023/06/29 03:29:49;;;;;;;28.20;10.57;;;18.50;99.90;;;;;;5010902;28;20076;-83
2023/06/29 03:32:15;;;;;;;22.63;8.73;;;18.40;99.90;;;;;;4994459;28;20393;-82
2023/06/29 03:37:28;;;;;;;24.23;10.73;;;18.30;99.90;;;;;;4997556;28;20109;-81
2023/06/29 03:39:54;;;;;;;28.63;10.75;;;18.30;99.90;;;;;;4999766;28;20046;-85
2023/06/29 03:42:21;;;;;;;23.88;9.52;;;18.20;99.90;;;;;;4999448;28;20101;-81
2023/06/29 03:44:48;;;;;;;25.38;9.40;;;18.10;99.90;;;;;;4998800;28;20445;-84
2023/06/29 03:47:15;;;;;;;24.40;9.32;;;18.10;99.90;;;;;;5014506;28;20049;-84
2023/06/29 03:49:41;;;;;;;24.25;8.60;;;18.10;99.90;;;;;;4999260;28;20070;-80
2023/06/29 03:52:08;;;;;;;25.88;9.13;;;18.10;99.90;;;;;;5013741;28;20450;-80
2023/06/29 03:54:35;;;;;;;25.00;9.20;;;18.00;99.90;;;;;;5014841;28;20141;-82
2023/06/29 03:57:02;;;;;;;21.27;8.48;;;18.00;99.90;;;;;;4999072;28;20042;-82
2023/06/29 03:59:29;;;;;;;23.17;8.57;;;18.10;99.90;;;;;;5013921;28;20057;-85
2023/06/29 04:01:56;;;;;;;22.65;8.82;;;18.00;99.90;;;;;;4999105;28;20053;-84
2023/06/29 04:04:23;;;;;;;23.08;8.90;;;18.00;99.90;;;;;;4998467;28;20041;-80
2023/06/29 04:06:49;;;;;;;22.17;7.85;;;18.00;99.90;;;;;;5014383;28;20108;-82
2023/06/29 04:09:16;;;;;;;18.40;7.57;;;17.90;99.90;;;;;;4999000;28;20053;-83
2023/06/29 04:11:43;;;;;;;19.65;6.40;;;17.80;99.90;;;;;;4998497;28;20097;-83
2023/06/29 04:14:09;;;;;;;13.18;4.70;;;17.80;99.90;;;;;;4998750;28;20042;-85
2023/06/29 04:16:36;;;;;;;9.82;3.58;;;17.80;99.90;;;;;;4998770;28;20499;-82
2023/06/29 04:19:03;;;;;;;8.35;3.30;;;17.70;99.90;;;;;;4998195;28;20341;-82
2023/06/29 04:21:30;;;;;;;6.90;2.30;;;17.80;99.90;;;;;;4998724;28;20057;-81
2023/06/29 04:23:57;;;;;;;6.75;2.35;;;17.80;99.90;;;;;;4998766;28;20038;-81
2023/06/29 04:26:27;;;;;;;6.32;2.15;;;17.70;99.90;;;;;;4997343;28;20133;-82
2023/06/29 04:28:54;;;;;;;4.97;1.40;;;17.70;99.90;;;;;;4997952;28;20069;-82
2023/06/29 04:31:21;;;;;;;6.40;1.80;;;17.70;99.90;;;;;;4997054;28;20038;-80
2023/06/29 04:33:48;;;;;;;5.07;1.10;;;17.70;99.90;;;;;;4998123;28;20038;-83
2023/06/29 04:36:17;;;;;;;3.75;1.10;;;17.70;99.90;;;;;;4997612;28;20065;-83
2023/06/29 04:38:44;;;;;;;6.80;1.23;;;17.60;99.90;;;;;;4997409;28;20049;-83
2023/06/29 04:41:11;;;;;;;2.25;0.80;;;17.50;99.90;;;;;;4997280;28;20065;-81
2023/06/29 04:43:38;;;;;;;1.70;0.75;;;17.50;99.90;;;;;;4998480;28;20054;-84
2023/06/29 04:46:07;;;;;;;1.67;0.80;;;17.40;99.90;;;;;;4997319;28;20074;-81
2023/06/29 04:48:37;;;;;;;0.50;0.50;;;17.40;99.90;;;;;;4997262;28;20199;-84
2023/06/29 04:51:05;;;;;;;1.05;0.60;;;17.40;99.90;;;;;;4997601;28;20167;-80
2023/06/29 04:53:32;;;;;;;1.52;0.80;;;17.30;99.90;;;;;;4997718;28;20038;-81
2023/06/29 04:55:59;;;;;;;1.83;0.75;;;17.30;99.90;;;;;;4997970;28;20053;-82
2023/06/29 04:58:26;;;;;;;0.65;0.52;;;17.20;99.90;;;;;;4996384;28;20050;-83
2023/06/29 05:00:54;;;;;;;0.70;0.50;;;17.10;99.90;;;;;;4997075;28;20046;-83
2023/06/29 05:03:21;;;;;;;0.85;0.50;;;17.00;99.90;;;;;;4997889;28;20528;-81
2023/06/29 05:05:48;;;;;;;1.05;0.60;;;17.00;99.90;;;;;;4997121;28;20141;-84
2023/06/29 05:08:14;;;;;;;0.60;0.50;;;16.90;99.90;;;;;;4997417;28;20109;-82
2023/06/29 05:10:41;;;;;;;0.73;0.50;;;16.90;99.90;;;;;;4995688;28;20050;-84
2023/06/29 05:13:08;;;;;;;0.75;0.60;;;16.90;99.90;;;;;;4997737;28;20117;-81
2023/06/29 05:15:36;;;;;;;0.60;0.60;;;16.90;99.90;;;;;;4997496;28;20042;-83
2023/06/29 05:18:02;;;;;;;2.10;0.40;;;16.90;99.90;;;;;;4996834;28;20077;-83
2023/06/29 05:20:29;;;;;;;1.35;0.50;;;16.80;99.90;;;;;;4997628;28;20116;-81
2023/06/29 05:22:56;;;;;;;1.20;0.60;;;16.90;99.90;;;;;;4996831;28;20147;-82
2023/06/29 05:25:25;;;;;;;0.43;0.43;;;16.90;99.90;;;;;;4996822;28;20108;-80
2023/06/29 05:27:51;;;;;;;1.00;0.60;;;16.90;99.90;;;;;;4997312;28;20089;-80
2023/06/29 05:30:18;;;;;;;1.55;0.68;;;16.80;99.90;;;;;;4997615;28;20432;-80
2023/06/29 05:32:45;;;;;;;0.57;0.50;;;16.80;99.90;;;;;;4996030;28;20116;-79
2023/06/29 05:35:13;;;;;;;3.00;0.70;;;16.70;99.90;;;;;;4996350;28;20077;-83
2023/06/29 05:37:40;;;;;;;1.33;0.60;;;16.60;99.90;;;;;;4996450;28;20057;-80
2023/06/29 05:40:07;;;;;;;0.82;0.40;;;16.50;99.90;;;;;;4996581;28;20352;-81
2023/06/29 05:42:34;;;;;;;1.10;0.60;;;16.20;99.90;;;;;;4996979;28;20077;-80
2023/06/29 05:45:01;;;;;;;2.28;0.60;;;16.20;99.90;;;;;;4995556;28;20057;-82
2023/06/29 05:47:28;;;;;;;0.85;0.68;;;16.20;99.90;;;;;;4996916;28;20045;-81
2023/06/29 05:49:54;;;;;;;0.93;0.60;;;16.10;99.90;;;;;;4997223;28;20070;-80
2023/06/29 05:52:22;;;;;;;0.90;0.60;;;16.00;99.90;;;;;;4996330;28;20066;-81
2023/06/29 05:54:49;;;;;;;1.95;0.80;;;16.00;99.90;;;;;;4996941;28;20085;-79
2023/06/29 05:57:15;;;;;;;0.88;0.60;;;16.00;99.90;;;;;;4995947;28;20102;-82
2023/06/29 05:59:42;;;;;;;1.65;0.80;;;15.90;99.90;;;;;;4995691;28;20046;-82
2023/06/29 06:02:09;;;;;;;1.48;0.80;;;16.00;99.90;;;;;;4996883;28;20038;-80
2023/06/29 06:04:36;;;;;;;2.67;0.90;;;16.00;99.90;;;;;;4996067;28;20054;-80
2023/06/29 06:07:03;;;;;;;1.42;0.80;;;16.10;99.90;;;;;;4996479;28;20046;-82
2023/06/29 06:09:29;;;;;;;1.48;0.80;;;16.00;99.90;;;;;;5003589;28;20068;-80
2023/06/29 06:11:56;;;;;;;1.08;0.75;;;16.10;99.90;;;;;;4995717;28;20100;-81
2023/06/29 06:14:23;;;;;;;0.93;0.70;;;16.00;99.90;;;;;;4996341;28;20042;-82
2023/06/29 06:16:49;;;;;;;2.00;0.80;;;16.00;99.90;;;;;;4996296;28;20129;-80
2023/06/29 06:19:16;;;;;;;1.73;0.90;;;16.10;99.90;;;;;;4995735;28;20097;-81
2023/06/29 06:21:43;;;;;;;4.07;1.00;;;16.20;99.90;;;;;;4996777;28;20068;-81
2023/06/29 06:24:10;;;;;;;2.60;0.95;;;16.30;99.90;;;;;;4995572;28;20050;-81
2023/06/29 06:26:37;;;;;;;1.52;0.70;;;16.40;99.90;;;;;;4996068;28;20104;-80
2023/06/29 06:29:03;;;;;;;0.93;0.70;;;16.30;99.90;;;;;;4996366;28;20057;-81
2023/06/29 06:31:30;;;;;;;1.52;0.80;;;16.30;99.90;;;;;;4995577;28;20069;-80
2023/06/29 06:34:00;;;;;;;1.35;0.80;;;16.30;99.90;;;;;;4996243;28;20511;-81
2023/06/29 06:36:29;;;;;;;2.00;1.00;;;16.20;99.90;;;;;;4995980;28;20117;-81
2023/06/29 06:38:56;;;;;;;6.50;0.93;;;16.20;99.90;;;;;;4995247;28;20043;-81
2023/06/29 06:41:23;;;;;;;2.10;0.90;;;16.10;99.90;;;;;;4996075;28;20077;-79
2023/06/29 06:43:49;;;;;;;3.22;0.90;;;16.20;99.90;;;;;;5011706;28;20046;-80
2023/06/29 06:46:16;;;;;;;2.40;0.80;;;16.30;99.90;;;;;;4994754;28;20074;-79
2023/06/29 06:48:43;;;;;;;2.35;1.05;;;16.40;99.90;;;;;;5011314;28;20444;-82
2023/06/29 06:51:10;;;;;;;6.72;0.95;;;16.50;99.90;;;;;;4994920;28;20369;-81
2023/06/29 06:53:36;;;;;;;1.58;0.90;;;16.40;99.90;;;;;;4995691;28;20073;-83
2023/06/29 06:56:04;;;;;;;3.58;1.02;;;16.40;99.90;;;;;;4995645;28;20038;-82
2023/06/29 06:58:31;;;;;;;3.03;1.10;;;16.40;99.90;;;;;;4995043;28;20370;-82
2023/06/29 07:00:58;;;;;;;2.50;0.90;;;16.40;99.90;;;;;;5010922;28;20042;-81
2023/06/29 07:03:25;;;;;;;2.55;1.10;;;16.40;99.90;;;;;;4995182;28;20600;-80
2023/06/29 07:05:57;;;;;;;3.38;1.10;;;16.50;99.90;;;;;;5010205;28;20042;-83
2023/06/29 07:08:24;;;;;;;2.83;1.10;;;16.50;99.90;;;;;;4995586;28;20038;-82
2023/06/29 07:10:51;;;;;;;2.60;1.02;;;16.50;99.90;;;;;;4994924;28;20046;-80
2023/06/29 07:13:18;;;;;;;4.97;1.20;;;16.50;99.90;;;;;;4995575;28;20365;-79
2023/06/29 07:15:47;;;;;;;4.68;1.58;;;16.50;99.90;;;;;;4995126;28;20042;-81
2023/06/29 07:18:14;;;;;;;4.88;1.70;;;16.50;99.90;;;;;;4977579;28;20038;-80
2023/06/29 07:20:40;;;;;;;5.43;2.00;;;16.40;99.90;;;;;;4995654;28;20122;-81
2023/06/29 07:23:10;;;;;;;4.53;1.80;;;16.30;99.90;;;;;;4994802;28;20108;-80
2023/06/29 07:25:41;;;;;;;5.25;2.10;;;16.30;99.90;;;;;;4993405;28;20543;-79
2023/06/29 07:28:08;;;;;;;4.60;1.88;;;16.30;99.90;;;;;;4995684;28;20066;-81
2023/06/29 07:30:35;;;;;;;4.50;2.00;;;16.30;99.90;;;;;;4995481;28;20097;-80
2023/06/29 07:33:01;;;;;;;6.50;2.20;;;16.30;99.90;;;;;;4994442;28;20046;-79
2023/06/29 07:38:14;;;;;;;5.00;2.20;;;16.30;99.90;;;;;;4994070;28;20054;-78
2023/06/29 07:40:42;;;;;;;5.50;2.35;;;16.20;99.90;;;;;;4995337;28;20074;-80
2023/06/29 07:43:08;;;;;;;4.68;1.90;;;16.20;99.90;;;;;;4995441;28;20074;-80
2023/06/29 07:45:36;;;;;;;6.63;2.05;;;16.20;99.90;;;;;;4993986;28;20074;-80
2023/06/29 07:48:03;;;;;;;4.78;2.10;;;16.20;99.90;;;;;;4978076;28;20112;-80
2023/06/29 07:50:30;;;;;;;6.00;2.70;;;16.20;99.90;;;;;;4983423;28;20057;-81
2023/06/29 07:52:57;;;;;;;6.30;2.25;;;16.30;99.90;;;;;;4974709;28;20496;-79
2023/06/29 07:55:26;;;;;;;5.63;2.47;;;16.40;99.90;;;;;;4985585;28;20050;-81
2023/06/29 07:57:53;;;;;;;6.22;2.58;;;16.50;99.90;;;;;;4974722;28;20050;-81
2023/06/29 08:00:22;;;;;;;5.90;2.00;;;16.40;99.90;;;;;;4975280;28;20117;-79
2023/06/29 08:02:53;;;;;;;6.82;2.25;;;16.50;99.90;;;;;;4975583;28;20134;-79
2023/06/29 08:05:22;;;;;;;6.70;2.40;;;16.50;99.90;;;;;;4974950;28;20129;-81
2023/06/29 08:07:51;;;;;;;8.00;2.28;;;16.40;99.90;;;;;;4975714;28;20070;-81
2023/06/29 08:10:18;;;;;;;5.88;2.53;;;16.40;99.90;;;;;;4976191;28;20493;-80
2023/06/29 08:12:45;;;;;;;6.82;2.33;;;16.40;99.90;;;;;;4974706;28;20112;-80
2023/06/29 08:15:15;;;;;;;5.15;2.15;;;16.40;99.90;;;;;;4974900;28;20477;-81
2023/06/29 08:17:41;;;;;;;6.38;2.00;;;16.40;99.90;;;;;;4973766;28;20133;-81
2023/06/29 08:20:12;;;;;;;6.43;2.45;;;16.40;99.90;;;;;;4975296;28;20369;-78
2023/06/29 08:22:39;;;;;;;5.93;2.20;;;16.30;99.90;;;;;;4976770;28;20066;-81
2023/06/29 08:25:08;;;;;;;7.57;2.00;;;16.30;99.90;;;;;;4978023;28;20077;-82
2023/06/29 08:27:35;;;;;;;7.22;2.42;;;16.20;99.90;;;;;;4978338;28;20085;-78
2023/06/29 08:30:02;;;;;;;7.60;2.50;;;16.20;99.90;;;;;;4978748;28;20134;-80
2023/06/29 08:32:29;;;;;;;5.75;2.38;;;16.20;99.90;;;;;;4978160;28;20370;-77
2023/06/29 08:34:56;;;;;;;6.78;2.67;;;16.40;99.90;;;;;;4978906;28;20035;-80
2023/06/29 08:37:22;;;;;;;6.78;2.88;;;16.50;99.90;;;;;;4977781;28;20383;-81
2023/06/29 08:39:49;;;;;;;6.15;2.78;;;16.60;99.90;;;;;;4978795;28;20088;-82
2023/06/29 08:42:16;;;;;;;14.25;3.45;;;16.80;99.90;;;;;;4977767;28;20050;-80
2023/06/29 08:47:28;;;;;;;7.10;2.92;;;16.80;99.90;;;;;;4978497;28;20042;-79
2023/06/29 08:49:55;;;;;;;6.60;2.92;;;16.80;99.90;;;;;;4978641;28;20057;-83
2023/06/29 08:52:22;;;;;;;9.05;3.05;;;16.90;99.90;;;;;;4977897;28;20110;-80
2023/06/29 08:54:49;;;;;;;6.00;2.83;;;16.80;99.90;;;;;;4977447;28;20081;-80
2023/06/29 08:57:16;;;;;;;7.00;3.05;;;16.80;99.90;;;;;;4961285;28;20094;-80
2023/06/29 08:59:42;;;;;;;8.45;3.08;;;16.70;99.90;;;;;;4976886;28;20536;-80
2023/06/29 09:02:10;;;;;;;7.68;3.28;;;16.70;99.90;;;;;;4978484;28;20046;-81
2023/06/29 09:04:37;;;;;;;6.63;3.00;;;16.70;99.90;;;;;;4977628;28;20047;-78
2023/06/29 09:07:04;;;;;;;8.25;2.78;;;16.70;99.90;;;;;;4977859;28;20046;-78
2023/06/29 09:09:31;;;;;;;7.90;3.45;;;16.70;99.90;;;;;;4977886;28;20058;-81
2023/06/29 09:12:00;;;;;;;5.95;3.08;;;16.70;99.90;;;;;;4977410;28;20046;-79
2023/06/29 09:14:32;;;;;;;6.60;3.15;;;16.80;99.90;;;;;;4991163;28;20085;-82
2023/06/29 09:17:01;;;;;;;8.05;3.50;;;16.90;99.90;;;;;;4996888;28;20038;-81
2023/06/29 09:19:29;;;;;;;8.32;3.03;;;16.80;99.90;;;;;;4996314;28;20046;-81
2023/06/29 09:21:58;;;;;;;7.35;3.58;;;17.00;99.90;;;;;;4996961;28;20047;-80
2023/06/29 09:24:24;;;;;;;6.32;3.50;;;17.00;99.90;;;;;;4996309;28;20042;-82
2023/06/29 09:26:51;;;;;;;8.18;3.40;;;17.00;99.90;;;;;;4996846;28;20050;-81
2023/06/29 09:29:18;;;;;;;6.65;3.22;;;17.10;99.90;;;;;;4996976;28;20050;-82
2023/06/29 09:31:44;;;;;;;6.22;3.00;;;17.30;99.90;;;;;;4996654;28;20105;-84
2023/06/29 09:34:11;;;;;;;6.03;2.55;;;17.50;99.90;;;;;;4995874;28;20465;-84
2023/06/29 09:39:25;;;;;;;7.07;2.53;;;17.70;99.90;;;;;;4996331;28;20050;-82
2023/06/29 09:41:52;;;;;;;5.28;2.20;;;17.70;99.90;;;;;;4997547;28;20097;-84
2023/06/29 09:44:21;;;;;;;6.63;2.25;;;17.80;99.90;;;;;;4995086;28;20406;-81
2023/06/29 09:46:48;;;;;;;8.10;2.50;;;17.70;99.90;;;;;;4995804;28;20106;-81
2023/06/29 09:49:18;;;;;;;4.70;2.10;;;17.70;99.90;;;;;;4997016;28;20046;-85
2023/06/29 09:51:48;;;;;;;7.38;2.10;;;17.60;99.90;;;;;;4978904;28;20420;-83
2023/06/29 09:54:14;;;;;;;6.82;2.40;;;17.70;99.90;;;;;;4996603;28;20535;-81
2023/06/29 09:56:44;;;;;;;6.50;2.42;;;17.70;99.90;;;;;;4996494;28;20108;-82
2023/06/29 09:59:10;;;;;;;5.95;2.22;;;17.70;99.90;;;;;;4995906;28;20042;-82
2023/06/29 10:01:37;;;;;;;6.55;2.40;;;17.70;99.90;;;;;;4996767;28;20096;-81
2023/06/29 10:04:04;;;;;;;5.72;2.30;;;17.70;99.90;;;;;;4996042;28;20105;-85
2023/06/29 10:06:31;;;;;;;5.68;2.25;;;17.70;99.90;;;;;;4995454;28;20057;-82
2023/06/29 10:08:58;;;;;;;6.57;2.38;;;17.80;99.90;;;;;;4996367;28;20082;-82
2023/06/29 10:11:25;;;;;;;6.80;2.00;;;18.10;99.90;;;;;;4996078;28;20424;-82
2023/06/29 10:13:51;;;;;;;6.40;1.95;;;18.70;99.90;;;;;;4996279;28;20108;-84
2023/06/29 10:16:18;;;;;;;5.53;2.00;;;18.90;99.90;;;;;;4978948;28;20050;-84
2023/06/29 10:18:45;;;;;;;6.97;2.22;;;18.90;99.90;;;;;;4978381;28;20389;-84
2023/06/29 10:21:12;;;;;;;6.30;1.85;;;18.90;99.90;;;;;;4995739;28;20046;-80
2023/06/29 10:23:38;;;;;;;4.20;1.80;;;18.60;99.90;;;;;;4996025;28;20042;-83
2023/06/29 10:26:06;;;;;;;3.55;1.70;;;18.50;99.90;;;;;;4995193;28;20050;-83
2023/06/29 10:28:33;;;;;;;5.05;1.90;;;18.50;99.90;;;;;;4995164;28;20092;-81
2023/06/29 10:31:00;;;;;;;5.53;1.98;;;18.70;99.90;;;;;;4995200;28;20038;-80
2023/06/29 10:33:27;;;;;;;4.88;1.92;;;18.80;99.90;;;;;;4995325;28;20038;-81
2023/06/29 10:35:53;;;;;;;6.25;1.92;;;19.00;99.90;;;;;;4995052;28;20362;-84
2023/06/29 10:38:20;;;;;;;7.07;2.10;;;19.00;99.90;;;;;;4994829;28;20519;-83
2023/06/29 10:40:50;;;;;;;4.22;1.60;;;19.20;99.90;;;;;;4996110;28;20038;-80
2023/06/29 10:43:17;;;;;;;6.03;1.90;;;19.20;99.90;;;;;;4996144;28;20045;-80
2023/06/29 10:45:44;;;;;;;4.38;1.90;;;19.20;99.90;;;;;;4994522;28;20038;-81
2023/06/29 10:48:12;;;;;;;4.07;1.77;;;19.30;99.90;;;;;;4995121;28;20491;-83
2023/06/29 10:50:56;;;;;;;6.40;1.88;;;19.20;99.90;;;;;;4994710;28;20052;-82
2023/06/29 10:53:23;;;;;;;5.53;1.88;;;19.20;99.90;;;;;;4995436;28;20242;-82
2023/06/29 10:55:50;;;;;;;6.40;2.47;;;19.30;99.90;;;;;;4994430;28;20047;-81
2023/06/29 10:58:17;;;;;;;4.32;1.98;;;19.30;99.90;;;;;;4994986;28;20092;-82
2023/06/29 11:00:44;;;;;;;5.30;2.00;;;19.20;99.90;;;;;;4995433;28;20038;-82
2023/06/29 11:03:11;;;;;;;4.15;1.80;;;19.20;99.90;;;;;;4995947;28;20066;-83
2023/06/29 11:05:39;;;;;;;5.40;2.00;;;19.20;99.90;;;;;;4981368;28;20047;-81
2023/06/29 11:08:09;;;;;;;4.35;2.00;;;19.20;99.90;;;;;;4979569;28;20105;-81
2023/06/29 11:10:36;;;;;;;4.53;2.00;;;19.50;99.90;;;;;;4975900;28;20046;-81
2023/06/29 11:13:03;;;;;;;4.57;2.10;;;19.90;99.90;;;;;;4974300;28;20065;-82
2023/06/29 11:15:31;;;;;;;8.35;2.20;;;19.80;99.90;;;;;;4975589;28;20066;-81
2023/06/29 11:17:58;;;;;;;6.10;2.13;;;19.80;99.90;;;;;;4974959;28;20077;-82
2023/06/29 11:20:25;;;;;;;4.78;2.08;;;19.80;99.90;;;;;;4974875;28;20089;-79
2023/06/29 11:22:52;;;;;;;7.35;2.67;;;20.10;99.90;;;;;;4976597;28;20058;-79
2023/06/29 11:25:19;;;;;;;5.93;2.15;;;20.10;99.90;;;;;;4974957;28;20054;-80
2023/06/29 11:27:46;;;;;;;5.38;2.22;;;20.30;99.90;;;;;;4976087;28;20446;-78
2023/06/29 11:30:13;;;;;;;4.10;2.10;;;20.40;99.90;;;;;;4976152;28;20509;-80
2023/06/29 11:32:40;;;;;;;4.40;2.05;;;20.50;99.90;;;;;;4974877;28;20046;-80
2023/06/29 11:35:08;;;;;;;6.28;2.60;;;20.80;99.90;;;;;;4976249;28;20039;-79
2023/06/29 11:37:35;;;;;;;6.32;2.00;;;21.20;99.90;;;;;;4975200;28;20039;-81
2023/06/29 11:40:07;;;;;;;5.50;2.63;;;21.60;99.90;;;;;;4970483;28;20082;-80
2023/06/29 11:42:34;;;;;;;5.72;2.00;;;21.50;99.90;;;;;;4956424;29;20055;-80
2023/06/29 11:45:07;;;;;;;4.35;1.90;;;22.00;99.90;;;;;;4964431;28;20081;-79
2023/06/29 11:47:33;;;;;;;4.70;2.00;;;22.70;99.90;;;;;;4975777;28;20457;-79
2023/06/29 11:50:00;;;;;;;6.75;2.10;;;23.50;99.90;;;;;;4959256;28;20067;-80
2023/06/29 11:52:27;;;;;;;4.40;1.80;;;24.30;99.90;;;;;;4974886;28;20425;-81
2023/06/29 11:54:54;;;;;;;4.38;1.67;;;24.80;99.90;;;;;;4975572;28;20078;-82
2023/06/29 11:57:21;;;;;;;4.13;1.58;;;24.80;99.90;;;;;;4975842;28;20090;-79
2023/06/29 11:59:48;;;;;;;5.25;2.03;;;25.30;99.90;;;;;;4979674;28;20524;-81
2023/06/29 12:02:15;;;;;;;3.58;1.45;;;24.90;99.90;;;;;;4979602;28;20039;-82
2023/06/29 12:04:42;;;;;;;4.30;1.67;;;24.70;99.90;;;;;;4961354;28;20046;-78
2023/06/29 12:07:08;;;;;;;4.30;1.63;;;24.90;99.90;;;;;;4979314;28;20130;-80
2023/06/29 12:09:36;;;;;;;3.42;1.60;;;25.00;99.90;;;;;;4990710;28;20503;-81
2023/06/29 12:12:03;;;;;;;3.58;1.30;;;25.50;99.90;;;;;;4998135;28;20349;-80
2023/06/29 12:14:30;;;;;;;3.30;1.60;;;25.60;99.90;;;;;;4998841;28;20038;-83
2023/06/29 12:17:00;;;;;;;5.00;1.50;;;25.90;99.90;;;;;;4998952;28;20101;-81
2023/06/29 12:19:29;;;;;;;3.38;1.40;;;25.60;99.90;;;;;;4998431;28;20068;-81
2023/06/29 12:21:57;;;;;;;4.93;1.73;;;25.80;99.90;;;;;;4999366;28;20116;-84
2023/06/29 12:24:24;;;;;;;4.57;1.83;;;25.20;99.90;;;;;;4998229;28;20039;-81
2023/06/29 12:26:50;;;;;;;4.10;1.77;;;24.90;99.90;;;;;;4992824;28;20043;-84
2023/06/29 12:29:17;;;;;;;6.38;1.70;;;25.10;99.90;;;;;;4992913;28;20061;-80
2023/06/29 12:31:44;;;;;;;4.05;1.75;;;24.60;99.90;;;;;;4988343;28;20046;-81
2023/06/29 12:34:11;;;;;;;4.40;1.70;;;24.20;99.90;;;;;;4998294;28;20084;-81
2023/06/29 12:36:38;;;;;;;8.68;1.92;;;24.00;99.90;;;;;;4998024;28;20515;-82
2023/06/29 12:39:04;;;;;;;5.72;1.70;;;24.30;99.90;;;;;;4987959;28;20055;-83
2023/06/29 12:41:31;;;;;;;4.60;1.67;;;24.70;99.90;;;;;;4978886;28;20074;-80
2023/06/29 12:43:58;;;;;;;5.57;1.75;;;24.50;99.90;;;;;;4985275;28;20035;-84
2023/06/29 12:46:27;;;;;;;5.70;1.90;;;24.20;99.90;;;;;;4996990;28;20054;-80
2023/06/29 12:48:54;;;;;;;8.48;1.70;;;23.90;99.90;;;;;;5013389;28;20082;-84
2023/06/29 12:51:20;;;;;;;5.05;1.63;;;23.70;99.90;;;;;;5012692;28;20473;-84
2023/06/29 12:53:47;;;;;;;3.40;1.40;;;24.40;99.90;;;;;;4997545;28;20389;-83
2023/06/29 12:56:16;;;;;;;4.38;1.50;;;25.10;99.90;;;;;;4997778;28;20096;-82
2023/06/29 12:58:43;;;;;;;7.20;1.48;;;26.00;99.90;;;;;;5012396;28;20046;-81
2023/06/29 13:01:09;;;;;;;4.20;1.60;;;26.90;99.90;;;;;;5003187;28;20069;-81
2023/06/29 13:03:36;;;;;;;3.70;1.30;;;27.40;99.90;;;;;;4996343;28;20046;-80
2023/06/29 13:08:50;;;;;;;5.78;1.30;;;26.20;99.90;;;;;;4988954;28;20058;-82